sensor_id;sensor_type;location;lat;lon;timestamp;P1;durP1;ratioP1;P2;durP2;ratioP2
4577;SDS011;2301;47.354;8.528;2023-06-24T00:02:18;6.10;;;3.10;;
4577;SDS011;2301;47.354;8.528;2023-06-24T00:04:49;4.63;;;3.10;;
4577;SDS011;2301;47.354;8.528;2023-06-24T00:07:17;3.17;;;2.70;;
4577;SDS011;2301;47.354;8.528;2023-06-24T00:09:46;4.10;;;2.97;;
4577;SDS011;2301;47.354;8.528;2023-06-24T00:12:14;3.97;;;3.13;;
4577;SDS011;2301;47.354;8.528;2023-06-24T00:14:44;4.30;;;3.20;;
4577;SDS011;2301;47.354;8.528;2023-06-24T00:17:11;3.50;;;2.77;;
4577;SDS011;2301;47.354;8.528;2023-06-24T00:19:38;4.60;;;2.63;;
4577;SDS011;2301;47.354;8.528;2023-06-24T00:22:05;4.07;;;3.20;;
4577;SDS011;2301;47.354;8.528;2023-06-24T00:24:32;5.33;;;2.70;;
4577;SDS011;2301;47.354;8.528;2023-06-24T00:26:59;4.70;;;2.90;;
4577;SDS011;2301;47.354;8.528;2023-06-24T00:29:27;3.63;;;2.77;;
4577;SDS011;2301;47.354;8.528;2023-06-24T00:31:54;6.27;;;3.10;;
4577;SDS011;2301;47.354;8.528;2023-06-24T00:34:21;6.97;;;3.00;;
4577;SDS011;2301;47.354;8.528;2023-06-24T00:36:48;3.43;;;2.70;;
4577;SDS011;2301;47.354;8.528;2023-06-24T00:39:16;4.00;;;3.10;;
4577;SDS011;2301;47.354;8.528;2023-06-24T00:41:43;4.63;;;2.53;;
4577;SDS011;2301;47.354;8.528;2023-06-24T00:44:10;3.87;;;3.17;;
4577;SDS011;2301;47.354;8.528;2023-06-24T00:46:39;4.63;;;3.00;;
4577;SDS011;2301;47.354;8.528;2023-06-24T00:49:06;2.93;;;2.53;;
4577;SDS011;2301;47.354;8.528;2023-06-24T00:51:33;5.90;;;3.40;;
4577;SDS011;2301;47.354;8.528;2023-06-24T00:54:01;3.40;;;2.90;;
4577;SDS011;2301;47.354;8.528;2023-06-24T00:56:30;3.50;;;2.70;;
4577;SDS011;2301;47.354;8.528;2023-06-24T00:58:59;3.50;;;2.90;;
4577;SDS011;2301;47.354;8.528;2023-06-24T01:01:28;4.10;;;2.60;;
4577;SDS011;2301;47.354;8.528;2023-06-24T01:04:00;4.00;;;2.90;;
4577;SDS011;2301;47.354;8.528;2023-06-24T01:06:28;3.20;;;2.73;;
4577;SDS011;2301;47.354;8.528;2023-06-24T01:08:55;4.43;;;3.03;;
4577;SDS011;2301;47.354;8.528;2023-06-24T01:11:22;5.30;;;2.97;;
4577;SDS011;2301;47.354;8.528;2023-06-24T01:13:50;3.80;;;2.90;;
4577;SDS011;2301;47.354;8.528;2023-06-24T01:16:22;3.33;;;2.83;;
4577;SDS011;2301;47.354;8.528;2023-06-24T01:18:55;4.90;;;2.90;;
4577;SDS011;2301;47.354;8.528;2023-06-24T01:21:33;3.97;;;3.00;;
4577;SDS011;2301;47.354;8.528;2023-06-24T01:24:17;18.10;;;2.93;;
4577;SDS011;2301;47.354;8.528;2023-06-24T01:29:52;4.17;;;3.30;;
4577;SDS011;2301;47.354;8.528;2023-06-24T01:32:29;4.70;;;3.30;;
4577;SDS011;2301;47.354;8.528;2023-06-24T01:35:00;4.43;;;3.00;;
4577;SDS011;2301;47.354;8.528;2023-06-24T01:37:35;5.00;;;3.30;;
4577;SDS011;2301;47.354;8.528;2023-06-24T01:40:09;4.50;;;3.30;;
4577;SDS011;2301;47.354;8.528;2023-06-24T01:42:38;5.80;;;3.50;;
4577;SDS011;2301;47.354;8.528;2023-06-24T01:45:08;4.10;;;3.17;;
4577;SDS011;2301;47.354;8.528;2023-06-24T01:47:40;5.23;;;3.00;;
4577;SDS011;2301;47.354;8.528;2023-06-24T01:50:10;9.10;;;2.73;;
4577;SDS011;2301;47.354;8.528;2023-06-24T01:52:39;7.83;;;2.80;;
4577;SDS011;2301;47.354;8.528;2023-06-24T01:55:10;3.20;;;2.80;;
4577;SDS011;2301;47.354;8.528;2023-06-24T01:57:40;8.23;;;3.53;;
4577;SDS011;2301;47.354;8.528;2023-06-24T02:00:08;4.43;;;3.40;;
4577;SDS011;2301;47.354;8.528;2023-06-24T02:02:37;6.73;;;3.37;;
4577;SDS011;2301;47.354;8.528;2023-06-24T02:05:06;4.17;;;2.93;;
4577;SDS011;2301;47.354;8.528;2023-06-24T02:07:35;5.53;;;3.70;;
4577;SDS011;2301;47.354;8.528;2023-06-24T02:10:03;3.80;;;3.10;;
4577;SDS011;2301;47.354;8.528;2023-06-24T02:12:32;5.50;;;3.17;;
4577;SDS011;2301;47.354;8.528;2023-06-24T02:14:59;4.67;;;3.23;;
4577;SDS011;2301;47.354;8.528;2023-06-24T02:17:29;4.00;;;3.13;;
4577;SDS011;2301;47.354;8.528;2023-06-24T02:19:58;6.10;;;3.33;;
4577;SDS011;2301;47.354;8.528;2023-06-24T02:22:25;4.10;;;3.20;;
4577;SDS011;2301;47.354;8.528;2023-06-24T02:24:53;3.97;;;3.57;;
4577;SDS011;2301;47.354;8.528;2023-06-24T02:27:21;4.40;;;3.47;;
4577;SDS011;2301;47.354;8.528;2023-06-24T02:29:48;4.83;;;3.57;;
4577;SDS011;2301;47.354;8.528;2023-06-24T02:32:17;5.97;;;3.10;;
4577;SDS011;2301;47.354;8.528;2023-06-24T02:34:44;3.80;;;3.03;;
4577;SDS011;2301;47.354;8.528;2023-06-24T02:37:13;4.87;;;3.20;;
4577;SDS011;2301;47.354;8.528;2023-06-24T02:39:40;3.40;;;2.80;;
4577;SDS011;2301;47.354;8.528;2023-06-24T02:42:09;3.77;;;2.90;;
4577;SDS011;2301;47.354;8.528;2023-06-24T02:44:36;5.57;;;3.47;;
4577;SDS011;2301;47.354;8.528;2023-06-24T02:47:04;4.60;;;3.13;;
4577;SDS011;2301;47.354;8.528;2023-06-24T02:49:34;5.53;;;3.53;;
4577;SDS011;2301;47.354;8.528;2023-06-24T02:52:03;4.43;;;3.27;;
4577;SDS011;2301;47.354;8.528;2023-06-24T02:54:32;3.60;;;3.10;;
4577;SDS011;2301;47.354;8.528;2023-06-24T02:56:59;6.97;;;3.67;;
4577;SDS011;2301;47.354;8.528;2023-06-24T02:59:27;5.43;;;3.30;;
4577;SDS011;2301;47.354;8.528;2023-06-24T03:01:54;4.70;;;3.57;;
4577;SDS011;2301;47.354;8.528;2023-06-24T03:04:21;4.40;;;3.17;;
4577;SDS011;2301;47.354;8.528;2023-06-24T03:06:48;4.17;;;3.20;;
4577;SDS011;2301;47.354;8.528;2023-06-24T03:09:16;4.30;;;3.30;;
4577;SDS011;2301;47.354;8.528;2023-06-24T03:11:44;3.60;;;2.97;;
4577;SDS011;2301;47.354;8.528;2023-06-24T03:14:12;6.07;;;3.60;;
4577;SDS011;2301;47.354;8.528;2023-06-24T03:16:40;4.43;;;3.50;;
4577;SDS011;2301;47.354;8.528;2023-06-24T03:19:07;4.03;;;3.23;;
4577;SDS011;2301;47.354;8.528;2023-06-24T03:21:34;7.17;;;3.30;;
4577;SDS011;2301;47.354;8.528;2023-06-24T03:24:01;4.93;;;3.13;;
4577;SDS011;2301;47.354;8.528;2023-06-24T03:26:31;8.87;;;3.70;;
4577;SDS011;2301;47.354;8.528;2023-06-24T03:29:00;4.60;;;3.53;;
4577;SDS011;2301;47.354;8.528;2023-06-24T03:31:28;4.90;;;3.87;;
4577;SDS011;2301;47.354;8.528;2023-06-24T03:33:55;3.77;;;3.10;;
4577;SDS011;2301;47.354;8.528;2023-06-24T03:36:22;4.10;;;3.40;;
4577;SDS011;2301;47.354;8.528;2023-06-24T03:38:49;4.77;;;3.37;;
4577;SDS011;2301;47.354;8.528;2023-06-24T03:41:15;7.50;;;3.20;;
4577;SDS011;2301;47.354;8.528;2023-06-24T03:43:42;6.53;;;3.43;;
4577;SDS011;2301;47.354;8.528;2023-06-24T03:46:11;4.83;;;3.97;;
4577;SDS011;2301;47.354;8.528;2023-06-24T03:48:38;5.37;;;3.90;;
4577;SDS011;2301;47.354;8.528;2023-06-24T03:51:05;4.57;;;3.30;;
4577;SDS011;2301;47.354;8.528;2023-06-24T03:53:32;4.63;;;3.90;;
4577;SDS011;2301;47.354;8.528;2023-06-24T03:55:59;6.10;;;3.93;;
4577;SDS011;2301;47.354;8.528;2023-06-24T03:58:26;4.33;;;3.33;;
4577;SDS011;2301;47.354;8.528;2023-06-24T04:00:53;4.30;;;3.60;;
4577;SDS011;2301;47.354;8.528;2023-06-24T04:03:23;5.37;;;4.20;;
4577;SDS011;2301;47.354;8.528;2023-06-24T04:05:52;5.60;;;4.00;;
4577;SDS011;2301;47.354;8.528;2023-06-24T04:08:19;5.10;;;3.73;;
4577;SDS011;2301;47.354;8.528;2023-06-24T04:10:46;4.17;;;3.60;;
4577;SDS011;2301;47.354;8.528;2023-06-24T04:13:13;4.23;;;3.37;;
4577;SDS011;2301;47.354;8.528;2023-06-24T04:15:41;5.00;;;3.67;;
4577;SDS011;2301;47.354;8.528;2023-06-24T04:18:11;4.13;;;3.20;;
4577;SDS011;2301;47.354;8.528;2023-06-24T04:20:39;4.73;;;3.87;;
4577;SDS011;2301;47.354;8.528;2023-06-24T04:23:06;5.40;;;3.67;;
4577;SDS011;2301;47.354;8.528;2023-06-24T04:25:35;5.70;;;3.90;;
4577;SDS011;2301;47.354;8.528;2023-06-24T04:28:03;6.47;;;3.87;;
4577;SDS011;2301;47.354;8.528;2023-06-24T04:30:30;4.53;;;3.60;;
4577;SDS011;2301;47.354;8.528;2023-06-24T04:32:57;9.07;;;3.63;;
4577;SDS011;2301;47.354;8.528;2023-06-24T04:35:24;5.07;;;3.53;;
4577;SDS011;2301;47.354;8.528;2023-06-24T04:37:53;6.13;;;3.40;;
4577;SDS011;2301;47.354;8.528;2023-06-24T04:40:20;3.40;;;3.10;;
4577;SDS011;2301;47.354;8.528;2023-06-24T04:42:47;3.67;;;2.93;;
4577;SDS011;2301;47.354;8.528;2023-06-24T04:45:14;3.40;;;3.00;;
4577;SDS011;2301;47.354;8.528;2023-06-24T04:47:40;3.77;;;2.87;;
4577;SDS011;2301;47.354;8.528;2023-06-24T04:50:09;4.50;;;3.40;;
4577;SDS011;2301;47.354;8.528;2023-06-24T04:52:36;5.07;;;3.60;;
4577;SDS011;2301;47.354;8.528;2023-06-24T04:55:06;3.30;;;2.60;;
4577;SDS011;2301;47.354;8.528;2023-06-24T04:57:33;4.80;;;3.73;;
4577;SDS011;2301;47.354;8.528;2023-06-24T05:00:00;4.07;;;3.20;;
4577;SDS011;2301;47.354;8.528;2023-06-24T05:02:27;3.63;;;3.23;;
4577;SDS011;2301;47.354;8.528;2023-06-24T05:04:54;4.60;;;3.30;;
4577;SDS011;2301;47.354;8.528;2023-06-24T05:07:21;5.00;;;3.70;;
4577;SDS011;2301;47.354;8.528;2023-06-24T05:09:48;6.03;;;3.57;;
4577;SDS011;2301;47.354;8.528;2023-06-24T05:12:17;5.07;;;2.80;;
4577;SDS011;2301;47.354;8.528;2023-06-24T05:14:48;4.33;;;3.30;;
4577;SDS011;2301;47.354;8.528;2023-06-24T05:17:16;3.70;;;2.87;;
4577;SDS011;2301;47.354;8.528;2023-06-24T05:19:43;5.50;;;3.07;;
4577;SDS011;2301;47.354;8.528;2023-06-24T05:22:10;3.87;;;3.07;;
4577;SDS011;2301;47.354;8.528;2023-06-24T05:24:37;4.07;;;3.00;;
4577;SDS011;2301;47.354;8.528;2023-06-24T05:27:06;3.53;;;3.00;;
4577;SDS011;2301;47.354;8.528;2023-06-24T05:29:35;4.07;;;3.10;;
4577;SDS011;2301;47.354;8.528;2023-06-24T05:32:04;4.80;;;3.93;;
4577;SDS011;2301;47.354;8.528;2023-06-24T05:34:31;4.27;;;3.73;;
4577;SDS011;2301;47.354;8.528;2023-06-24T05:36:59;5.63;;;4.10;;
4577;SDS011;2301;47.354;8.528;2023-06-24T05:39:25;5.63;;;4.60;;
4577;SDS011;2301;47.354;8.528;2023-06-24T05:41:52;5.17;;;3.87;;
4577;SDS011;2301;47.354;8.528;2023-06-24T05:44:20;5.13;;;3.90;;
4577;SDS011;2301;47.354;8.528;2023-06-24T05:46:49;5.57;;;4.30;;
4577;SDS011;2301;47.354;8.528;2023-06-24T05:49:17;4.27;;;3.53;;
4577;SDS011;2301;47.354;8.528;2023-06-24T05:51:43;5.17;;;4.43;;
4577;SDS011;2301;47.354;8.528;2023-06-24T05:54:10;7.00;;;4.20;;
4577;SDS011;2301;47.354;8.528;2023-06-24T05:56:38;5.93;;;4.20;;
4577;SDS011;2301;47.354;8.528;2023-06-24T05:59:05;5.20;;;4.50;;
4577;SDS011;2301;47.354;8.528;2023-06-24T06:01:32;5.37;;;3.80;;
4577;SDS011;2301;47.354;8.528;2023-06-24T06:04:00;7.23;;;4.70;;
4577;SDS011;2301;47.354;8.528;2023-06-24T06:06:27;10.03;;;4.30;;
4577;SDS011;2301;47.354;8.528;2023-06-24T06:08:55;4.63;;;4.10;;
4577;SDS011;2301;47.354;8.528;2023-06-24T06:11:22;5.40;;;4.03;;
4577;SDS011;2301;47.354;8.528;2023-06-24T06:13:49;4.73;;;4.00;;
4577;SDS011;2301;47.354;8.528;2023-06-24T06:16:17;5.70;;;4.37;;
4577;SDS011;2301;47.354;8.528;2023-06-24T06:18:44;5.27;;;4.10;;
4577;SDS011;2301;47.354;8.528;2023-06-24T06:21:13;7.60;;;4.03;;
4577;SDS011;2301;47.354;8.528;2023-06-24T06:23:41;5.80;;;4.07;;
4577;SDS011;2301;47.354;8.528;2023-06-24T06:26:08;5.27;;;4.17;;
4577;SDS011;2301;47.354;8.528;2023-06-24T06:28:35;5.90;;;4.00;;
4577;SDS011;2301;47.354;8.528;2023-06-24T06:31:02;10.30;;;4.60;;
4577;SDS011;2301;47.354;8.528;2023-06-24T06:33:29;4.70;;;4.00;;
4577;SDS011;2301;47.354;8.528;2023-06-24T06:35:56;5.33;;;4.20;;
4577;SDS011;2301;47.354;8.528;2023-06-24T06:38:25;7.13;;;4.30;;
4577;SDS011;2301;47.354;8.528;2023-06-24T06:40:52;4.67;;;4.17;;
4577;SDS011;2301;47.354;8.528;2023-06-24T06:43:19;4.27;;;3.83;;
4577;SDS011;2301;47.354;8.528;2023-06-24T06:45:46;9.17;;;4.43;;
4577;SDS011;2301;47.354;8.528;2023-06-24T06:48:13;5.03;;;4.23;;
4577;SDS011;2301;47.354;8.528;2023-06-24T06:50:40;5.30;;;3.87;;
4577;SDS011;2301;47.354;8.528;2023-06-24T06:53:07;4.63;;;4.13;;
4577;SDS011;2301;47.354;8.528;2023-06-24T06:55:35;5.80;;;3.80;;
4577;SDS011;2301;47.354;8.528;2023-06-24T06:58:04;5.17;;;3.83;;
4577;SDS011;2301;47.354;8.528;2023-06-24T07:00:31;4.80;;;3.80;;
4577;SDS011;2301;47.354;8.528;2023-06-24T07:02:59;7.10;;;4.10;;
4577;SDS011;2301;47.354;8.528;2023-06-24T07:05:26;4.83;;;3.83;;
4577;SDS011;2301;47.354;8.528;2023-06-24T07:07:53;6.13;;;3.60;;
4577;SDS011;2301;47.354;8.528;2023-06-24T07:10:20;5.20;;;3.97;;
4577;SDS011;2301;47.354;8.528;2023-06-24T07:12:49;4.50;;;3.63;;
4577;SDS011;2301;47.354;8.528;2023-06-24T07:15:16;5.40;;;3.70;;
4577;SDS011;2301;47.354;8.528;2023-06-24T07:17:44;4.20;;;3.80;;
4577;SDS011;2301;47.354;8.528;2023-06-24T07:20:11;3.90;;;3.50;;
4577;SDS011;2301;47.354;8.528;2023-06-24T07:22:38;6.60;;;3.93;;
4577;SDS011;2301;47.354;8.528;2023-06-24T07:25:05;6.00;;;3.20;;
4577;SDS011;2301;47.354;8.528;2023-06-24T07:27:33;4.80;;;4.20;;
4577;SDS011;2301;47.354;8.528;2023-06-24T07:30:01;4.50;;;3.90;;
4577;SDS011;2301;47.354;8.528;2023-06-24T07:32:29;4.43;;;3.60;;
4577;SDS011;2301;47.354;8.528;2023-06-24T07:34:56;4.20;;;3.20;;
4577;SDS011;2301;47.354;8.528;2023-06-24T07:37:23;3.63;;;3.10;;
4577;SDS011;2301;47.354;8.528;2023-06-24T07:39:50;5.17;;;3.40;;
4577;SDS011;2301;47.354;8.528;2023-06-24T07:42:18;4.57;;;3.40;;
4577;SDS011;2301;47.354;8.528;2023-06-24T07:44:45;5.37;;;3.57;;
4577;SDS011;2301;47.354;8.528;2023-06-24T07:47:13;3.50;;;3.17;;
4577;SDS011;2301;47.354;8.528;2023-06-24T07:49:40;4.07;;;3.67;;
4577;SDS011;2301;47.354;8.528;2023-06-24T07:52:07;4.70;;;3.53;;
4577;SDS011;2301;47.354;8.528;2023-06-24T07:54:34;4.73;;;3.50;;
4577;SDS011;2301;47.354;8.528;2023-06-24T07:57:01;7.30;;;3.80;;
4577;SDS011;2301;47.354;8.528;2023-06-24T07:59:29;3.40;;;3.10;;
4577;SDS011;2301;47.354;8.528;2023-06-24T08:01:56;3.83;;;3.40;;
4577;SDS011;2301;47.354;8.528;2023-06-24T08:04:24;4.37;;;3.60;;
4577;SDS011;2301;47.354;8.528;2023-06-24T08:06:51;5.83;;;3.50;;
4577;SDS011;2301;47.354;8.528;2023-06-24T08:09:18;4.10;;;3.50;;
4577;SDS011;2301;47.354;8.528;2023-06-24T08:11:45;4.20;;;3.33;;
4577;SDS011;2301;47.354;8.528;2023-06-24T08:14:12;6.40;;;3.37;;
4577;SDS011;2301;47.354;8.528;2023-06-24T08:16:39;4.53;;;3.27;;
4577;SDS011;2301;47.354;8.528;2023-06-24T08:19:07;3.93;;;3.23;;
4577;SDS011;2301;47.354;8.528;2023-06-24T08:21:35;3.60;;;3.13;;
4577;SDS011;2301;47.354;8.528;2023-06-24T08:24:03;3.27;;;2.97;;
4577;SDS011;2301;47.354;8.528;2023-06-24T08:26:30;3.53;;;3.23;;
4577;SDS011;2301;47.354;8.528;2023-06-24T08:28:57;3.37;;;2.87;;
4577;SDS011;2301;47.354;8.528;2023-06-24T08:31:25;3.50;;;3.10;;
4577;SDS011;2301;47.354;8.528;2023-06-24T08:33:52;3.00;;;2.70;;
4577;SDS011;2301;47.354;8.528;2023-06-24T08:36:21;3.83;;;2.80;;
4577;SDS011;2301;47.354;8.528;2023-06-24T08:38:50;5.00;;;3.20;;
4577;SDS011;2301;47.354;8.528;2023-06-24T08:41:17;9.60;;;3.03;;
4577;SDS011;2301;47.354;8.528;2023-06-24T08:43:44;3.43;;;2.80;;
4577;SDS011;2301;47.354;8.528;2023-06-24T08:46:12;3.00;;;2.70;;
4577;SDS011;2301;47.354;8.528;2023-06-24T08:48:42;3.10;;;2.80;;
4577;SDS011;2301;47.354;8.528;2023-06-24T08:51:11;3.00;;;2.70;;
4577;SDS011;2301;47.354;8.528;2023-06-24T08:53:42;3.07;;;2.77;;
4577;SDS011;2301;47.354;8.528;2023-06-24T08:56:11;4.77;;;2.70;;
4577;SDS011;2301;47.354;8.528;2023-06-24T08:58:40;4.93;;;3.03;;
4577;SDS011;2301;47.354;8.528;2023-06-24T09:01:07;3.73;;;2.47;;
4577;SDS011;2301;47.354;8.528;2023-06-24T09:03:35;4.33;;;3.10;;
4577;SDS011;2301;47.354;8.528;2023-06-24T09:06:02;2.90;;;2.70;;
4577;SDS011;2301;47.354;8.528;2023-06-24T09:08:29;4.20;;;2.87;;
4577;SDS011;2301;47.354;8.528;2023-06-24T09:10:56;2.60;;;2.40;;
4577;SDS011;2301;47.354;8.528;2023-06-24T09:13:33;4.10;;;2.97;;
4577;SDS011;2301;47.354;8.528;2023-06-24T09:16:08;4.47;;;2.70;;
4577;SDS011;2301;47.354;8.528;2023-06-24T09:18:39;2.83;;;2.53;;
4577;SDS011;2301;47.354;8.528;2023-06-24T09:21:05;2.60;;;2.40;;
4577;SDS011;2301;47.354;8.528;2023-06-24T09:23:35;2.73;;;2.37;;
4577;SDS011;2301;47.354;8.528;2023-06-24T09:26:04;5.93;;;2.47;;
4577;SDS011;2301;47.354;8.528;2023-06-24T09:28:33;3.10;;;2.80;;
4577;SDS011;2301;47.354;8.528;2023-06-24T09:31:04;3.10;;;2.80;;
4577;SDS011;2301;47.354;8.528;2023-06-24T09:33:32;3.00;;;2.70;;
4577;SDS011;2301;47.354;8.528;2023-06-24T09:35:59;3.13;;;2.63;;
4577;SDS011;2301;47.354;8.528;2023-06-24T09:38:32;3.67;;;3.10;;
4577;SDS011;2301;47.354;8.528;2023-06-24T09:41:01;3.20;;;2.80;;
4577;SDS011;2301;47.354;8.528;2023-06-24T09:43:29;3.00;;;2.70;;
4577;SDS011;2301;47.354;8.528;2023-06-24T09:45:58;2.90;;;2.70;;
4577;SDS011;2301;47.354;8.528;2023-06-24T09:48:27;2.70;;;2.50;;
4577;SDS011;2301;47.354;8.528;2023-06-24T09:50:53;3.97;;;2.87;;
4577;SDS011;2301;47.354;8.528;2023-06-24T09:53:22;4.00;;;2.70;;
4577;SDS011;2301;47.354;8.528;2023-06-24T09:55:50;2.57;;;2.37;;
4577;SDS011;2301;47.354;8.528;2023-06-24T09:58:19;2.73;;;2.53;;
4577;SDS011;2301;47.354;8.528;2023-06-24T10:00:50;4.90;;;2.90;;
4577;SDS011;2301;47.354;8.528;2023-06-24T10:03:22;2.50;;;2.30;;
4577;SDS011;2301;47.354;8.528;2023-06-24T10:05:53;7.07;;;2.50;;
4577;SDS011;2301;47.354;8.528;2023-06-24T10:08:24;8.17;;;2.77;;
4577;SDS011;2301;47.354;8.528;2023-06-24T10:10:58;4.13;;;2.70;;
4577;SDS011;2301;47.354;8.528;2023-06-24T10:13:27;2.90;;;2.30;;
4577;SDS011;2301;47.354;8.528;2023-06-24T10:15:54;2.90;;;2.57;;
4577;SDS011;2301;47.354;8.528;2023-06-24T10:21:07;2.37;;;2.13;;
4577;SDS011;2301;47.354;8.528;2023-06-24T10:23:39;2.50;;;1.90;;
4577;SDS011;2301;47.354;8.528;2023-06-24T10:26:08;2.53;;;1.90;;
4577;SDS011;2301;47.354;8.528;2023-06-24T10:31:51;2.43;;;2.00;;
4577;SDS011;2301;47.354;8.528;2023-06-24T10:34:42;4.30;;;2.10;;
4577;SDS011;2301;47.354;8.528;2023-06-24T10:37:14;2.60;;;1.70;;
4577;SDS011;2301;47.354;8.528;2023-06-24T10:39:46;2.60;;;2.17;;
4577;SDS011;2301;47.354;8.528;2023-06-24T10:42:28;2.20;;;2.00;;
4577;SDS011;2301;47.354;8.528;2023-06-24T10:44:56;2.60;;;1.87;;
4577;SDS011;2301;47.354;8.528;2023-06-24T10:47:25;4.57;;;1.83;;
4577;SDS011;2301;47.354;8.528;2023-06-24T10:49:54;1.80;;;1.70;;
4577;SDS011;2301;47.354;8.528;2023-06-24T10:52:23;1.80;;;1.70;;
4577;SDS011;2301;47.354;8.528;2023-06-24T10:54:51;2.10;;;1.77;;
4577;SDS011;2301;47.354;8.528;2023-06-24T10:57:22;1.87;;;1.77;;
4577;SDS011;2301;47.354;8.528;2023-06-24T10:59:51;3.00;;;1.90;;
4577;SDS011;2301;47.354;8.528;2023-06-24T11:02:19;2.00;;;1.80;;
4577;SDS011;2301;47.354;8.528;2023-06-24T11:04:49;3.00;;;1.77;;
4577;SDS011;2301;47.354;8.528;2023-06-24T11:07:19;2.50;;;1.90;;
4577;SDS011;2301;47.354;8.528;2023-06-24T11:09:50;2.40;;;1.77;;
4577;SDS011;2301;47.354;8.528;2023-06-24T11:12:18;2.40;;;2.17;;
4577;SDS011;2301;47.354;8.528;2023-06-24T11:14:45;2.27;;;2.07;;
4577;SDS011;2301;47.354;8.528;2023-06-24T11:17:12;2.20;;;2.00;;
4577;SDS011;2301;47.354;8.528;2023-06-24T11:19:39;1.90;;;1.70;;
4577;SDS011;2301;47.354;8.528;2023-06-24T11:22:06;2.80;;;2.03;;
4577;SDS011;2301;47.354;8.528;2023-06-24T11:24:35;2.37;;;2.00;;
4577;SDS011;2301;47.354;8.528;2023-06-24T11:27:04;4.03;;;2.20;;
4577;SDS011;2301;47.354;8.528;2023-06-24T11:29:32;2.70;;;2.20;;
4577;SDS011;2301;47.354;8.528;2023-06-24T11:32:00;2.10;;;1.90;;
4577;SDS011;2301;47.354;8.528;2023-06-24T11:34:28;3.70;;;2.13;;
4577;SDS011;2301;47.354;8.528;2023-06-24T11:36:55;1.90;;;1.80;;
4577;SDS011;2301;47.354;8.528;2023-06-24T11:39:23;1.90;;;1.80;;
4577;SDS011;2301;47.354;8.528;2023-06-24T11:41:52;2.50;;;2.30;;
4577;SDS011;2301;47.354;8.528;2023-06-24T11:44:20;2.97;;;2.10;;
4577;SDS011;2301;47.354;8.528;2023-06-24T11:46:47;2.47;;;2.00;;
4577;SDS011;2301;47.354;8.528;2023-06-24T11:49:14;2.20;;;2.00;;
4577;SDS011;2301;47.354;8.528;2023-06-24T11:51:46;2.27;;;2.07;;
4577;SDS011;2301;47.354;8.528;2023-06-24T11:54:14;4.27;;;2.00;;
4577;SDS011;2301;47.354;8.528;2023-06-24T11:56:43;2.33;;;2.13;;
4577;SDS011;2301;47.354;8.528;2023-06-24T11:59:19;2.50;;;2.30;;
4577;SDS011;2301;47.354;8.528;2023-06-24T12:01:56;4.07;;;2.00;;
4577;SDS011;2301;47.354;8.528;2023-06-24T12:04:28;2.30;;;2.10;;
4577;SDS011;2301;47.354;8.528;2023-06-24T12:06:59;2.20;;;2.00;;
4577;SDS011;2301;47.354;8.528;2023-06-24T12:09:27;2.47;;;2.10;;
4577;SDS011;2301;47.354;8.528;2023-06-24T12:11:57;2.90;;;2.30;;
4577;SDS011;2301;47.354;8.528;2023-06-24T12:14:25;1.90;;;1.80;;
4577;SDS011;2301;47.354;8.528;2023-06-24T12:16:52;1.83;;;1.70;;
4577;SDS011;2301;47.354;8.528;2023-06-24T12:19:19;2.70;;;2.20;;
4577;SDS011;2301;47.354;8.528;2023-06-24T12:21:47;2.23;;;1.93;;
4577;SDS011;2301;47.354;8.528;2023-06-24T12:24:14;2.23;;;2.03;;
4577;SDS011;2301;47.354;8.528;2023-06-24T12:26:41;2.60;;;2.40;;
4577;SDS011;2301;47.354;8.528;2023-06-24T12:29:08;2.40;;;2.20;;
4577;SDS011;2301;47.354;8.528;2023-06-24T12:31:36;3.47;;;2.47;;
4577;SDS011;2301;47.354;8.528;2023-06-24T12:34:03;2.30;;;2.10;;
4577;SDS011;2301;47.354;8.528;2023-06-24T12:36:30;2.30;;;2.10;;
4577;SDS011;2301;47.354;8.528;2023-06-24T12:38:57;2.70;;;2.33;;
4577;SDS011;2301;47.354;8.528;2023-06-24T12:41:24;2.63;;;2.40;;
4577;SDS011;2301;47.354;8.528;2023-06-24T12:43:53;2.50;;;2.20;;
4577;SDS011;2301;47.354;8.528;2023-06-24T12:46:20;2.23;;;2.03;;
4577;SDS011;2301;47.354;8.528;2023-06-24T12:48:48;2.07;;;1.93;;
4577;SDS011;2301;47.354;8.528;2023-06-24T12:51:15;2.43;;;2.23;;
4577;SDS011;2301;47.354;8.528;2023-06-24T12:53:42;3.37;;;2.30;;
4577;SDS011;2301;47.354;8.528;2023-06-24T12:56:09;2.50;;;2.30;;
4577;SDS011;2301;47.354;8.528;2023-06-24T12:58:37;2.23;;;2.03;;
4577;SDS011;2301;47.354;8.528;2023-06-24T13:01:04;2.33;;;2.13;;
4577;SDS011;2301;47.354;8.528;2023-06-24T13:03:31;2.50;;;2.03;;
4577;SDS011;2301;47.354;8.528;2023-06-24T13:05:59;2.17;;;2.00;;
4577;SDS011;2301;47.354;8.528;2023-06-24T13:08:26;4.57;;;2.47;;
4577;SDS011;2301;47.354;8.528;2023-06-24T13:10:54;2.00;;;1.80;;
4577;SDS011;2301;47.354;8.528;2023-06-24T13:13:21;2.67;;;2.33;;
4577;SDS011;2301;47.354;8.528;2023-06-24T13:15:48;2.57;;;2.27;;
4577;SDS011;2301;47.354;8.528;2023-06-24T13:18:15;2.40;;;2.20;;
4577;SDS011;2301;47.354;8.528;2023-06-24T13:20:43;2.60;;;2.27;;
4577;SDS011;2301;47.354;8.528;2023-06-24T13:23:11;2.20;;;2.00;;
4577;SDS011;2301;47.354;8.528;2023-06-24T13:25:38;2.93;;;2.37;;
4577;SDS011;2301;47.354;8.528;2023-06-24T13:28:05;2.40;;;2.20;;
4577;SDS011;2301;47.354;8.528;2023-06-24T13:30:32;2.40;;;2.20;;
4577;SDS011;2301;47.354;8.528;2023-06-24T13:32:59;6.73;;;2.20;;
4577;SDS011;2301;47.354;8.528;2023-06-24T13:35:26;2.60;;;2.33;;
4577;SDS011;2301;47.354;8.528;2023-06-24T13:37:53;2.70;;;2.00;;
4577;SDS011;2301;47.354;8.528;2023-06-24T13:40:21;3.37;;;2.37;;
4577;SDS011;2301;47.354;8.528;2023-06-24T13:42:49;2.70;;;1.70;;
4577;SDS011;2301;47.354;8.528;2023-06-24T13:45:16;2.13;;;1.93;;
4577;SDS011;2301;47.354;8.528;2023-06-24T13:47:43;1.93;;;1.83;;
4577;SDS011;2301;47.354;8.528;2023-06-24T13:50:10;3.00;;;2.10;;
4577;SDS011;2301;47.354;8.528;2023-06-24T13:52:37;2.60;;;2.40;;
4577;SDS011;2301;47.354;8.528;2023-06-24T13:55:04;1.83;;;1.73;;
4577;SDS011;2301;47.354;8.528;2023-06-24T13:57:34;2.40;;;2.20;;
4577;SDS011;2301;47.354;8.528;2023-06-24T14:00:01;1.87;;;1.77;;
4577;SDS011;2301;47.354;8.528;2023-06-24T14:02:28;2.30;;;2.10;;
4577;SDS011;2301;47.354;8.528;2023-06-24T14:04:55;2.00;;;1.67;;
4577;SDS011;2301;47.354;8.528;2023-06-24T14:07:22;2.50;;;2.30;;
4577;SDS011;2301;47.354;8.528;2023-06-24T14:09:50;3.60;;;2.17;;
4577;SDS011;2301;47.354;8.528;2023-06-24T14:12:17;3.73;;;2.20;;
4577;SDS011;2301;47.354;8.528;2023-06-24T14:14:46;2.03;;;1.80;;
4577;SDS011;2301;47.354;8.528;2023-06-24T14:17:13;2.20;;;2.00;;
4577;SDS011;2301;47.354;8.528;2023-06-24T14:19:40;2.30;;;2.10;;
4577;SDS011;2301;47.354;8.528;2023-06-24T14:22:07;2.80;;;2.03;;
4577;SDS011;2301;47.354;8.528;2023-06-24T14:24:34;2.00;;;1.90;;
4577;SDS011;2301;47.354;8.528;2023-06-24T14:27:02;2.73;;;2.30;;
4577;SDS011;2301;47.354;8.528;2023-06-24T14:29:30;3.00;;;2.10;;
4577;SDS011;2301;47.354;8.528;2023-06-24T14:31:58;2.10;;;2.00;;
4577;SDS011;2301;47.354;8.528;2023-06-24T14:34:26;2.20;;;2.00;;
4577;SDS011;2301;47.354;8.528;2023-06-24T14:36:54;2.10;;;1.90;;
4577;SDS011;2301;47.354;8.528;2023-06-24T14:39:21;2.23;;;2.03;;
4577;SDS011;2301;47.354;8.528;2023-06-24T14:41:48;2.10;;;1.90;;
4577;SDS011;2301;47.354;8.528;2023-06-24T14:44:16;2.73;;;2.10;;
4577;SDS011;2301;47.354;8.528;2023-06-24T14:46:43;2.17;;;1.77;;
4577;SDS011;2301;47.354;8.528;2023-06-24T14:49:11;2.20;;;2.00;;
4577;SDS011;2301;47.354;8.528;2023-06-24T14:51:38;2.40;;;2.00;;
4577;SDS011;2301;47.354;8.528;2023-06-24T14:54:05;4.70;;;2.20;;
4577;SDS011;2301;47.354;8.528;2023-06-24T14:56:32;2.40;;;2.20;;
4577;SDS011;2301;47.354;8.528;2023-06-24T14:58:59;2.17;;;1.97;;
4577;SDS011;2301;47.354;8.528;2023-06-24T15:01:26;1.90;;;1.80;;
4577;SDS011;2301;47.354;8.528;2023-06-24T15:03:54;3.33;;;1.93;;
4577;SDS011;2301;47.354;8.528;2023-06-24T15:06:22;2.47;;;2.27;;
4577;SDS011;2301;47.354;8.528;2023-06-24T15:08:50;1.83;;;1.70;;
4577;SDS011;2301;47.354;8.528;2023-06-24T15:11:17;2.37;;;2.17;;
4577;SDS011;2301;47.354;8.528;2023-06-24T15:13:44;2.30;;;2.10;;
4577;SDS011;2301;47.354;8.528;2023-06-24T15:16:11;2.27;;;2.07;;
4577;SDS011;2301;47.354;8.528;2023-06-24T15:18:43;2.53;;;2.33;;
4577;SDS011;2301;47.354;8.528;2023-06-24T15:21:12;2.10;;;1.90;;
4577;SDS011;2301;47.354;8.528;2023-06-24T15:23:40;3.47;;;2.37;;
4577;SDS011;2301;47.354;8.528;2023-06-24T15:26:07;2.30;;;2.10;;
4577;SDS011;2301;47.354;8.528;2023-06-24T15:28:34;2.30;;;2.10;;
4577;SDS011;2301;47.354;8.528;2023-06-24T15:31:04;2.20;;;2.00;;